sensor_id;sensor_type;location;lat;lon;timestamp;P1;durP1;ratioP1;P2;durP2;ratioP2
58071;SDS011;60383;46.626;18.866;2023-04-06T00:01:09;11.88;;;7.15;;
58071;SDS011;60383;46.626;18.866;2023-04-06T00:03:35;11.18;;;7.20;;
58071;SDS011;60383;46.626;18.866;2023-04-06T00:06:01;10.50;;;6.93;;
58071;SDS011;60383;46.626;18.866;2023-04-06T00:08:27;7.95;;;6.20;;
58071;SDS011;60383;46.626;18.866;2023-04-06T00:10:52;12.20;;;6.68;;
58071;SDS011;60383;46.626;18.866;2023-04-06T00:13:18;9.23;;;6.65;;
58071;SDS011;60383;46.626;18.866;2023-04-06T00:15:43;9.57;;;6.90;;
58071;SDS011;60383;46.626;18.866;2023-04-06T00:18:09;10.25;;;6.68;;
58071;SDS011;60383;46.626;18.866;2023-04-06T00:20:34;9.43;;;6.28;;
58071;SDS011;60383;46.626;18.866;2023-04-06T00:23:00;11.43;;;7.30;;
58071;SDS011;60383;46.626;18.866;2023-04-06T00:25:25;9.00;;;6.32;;
58071;SDS011;60383;46.626;18.866;2023-04-06T00:27:51;11.00;;;6.07;;
58071;SDS011;60383;46.626;18.866;2023-04-06T00:30:16;10.05;;;6.60;;
58071;SDS011;60383;46.626;18.866;2023-04-06T00:32:42;9.43;;;6.70;;
58071;SDS011;60383;46.626;18.866;2023-04-06T00:35:08;9.75;;;6.80;;
58071;SDS011;60383;46.626;18.866;2023-04-06T00:37:33;9.95;;;6.88;;
58071;SDS011;60383;46.626;18.866;2023-04-06T00:39:59;11.05;;;6.68;;
58071;SDS011;60383;46.626;18.866;2023-04-06T00:42:25;9.25;;;6.18;;
58071;SDS011;60383;46.626;18.866;2023-04-06T00:44:55;10.30;;;6.70;;
58071;SDS011;60383;46.626;18.866;2023-04-06T00:49:48;11.98;;;6.38;;
58071;SDS011;60383;46.626;18.866;2023-04-06T00:52:13;8.50;;;6.22;;
58071;SDS011;60383;46.626;18.866;2023-04-06T00:54:39;10.07;;;6.70;;
58071;SDS011;60383;46.626;18.866;2023-04-06T00:57:05;13.93;;;7.00;;
58071;SDS011;60383;46.626;18.866;2023-04-06T00:59:30;10.70;;;6.18;;
58071;SDS011;60383;46.626;18.866;2023-04-06T01:01:56;10.20;;;7.03;;
58071;SDS011;60383;46.626;18.866;2023-04-06T01:04:21;9.30;;;6.22;;
58071;SDS011;60383;46.626;18.866;2023-04-06T01:06:48;11.48;;;7.40;;
58071;SDS011;60383;46.626;18.866;2023-04-06T01:09:14;10.77;;;6.82;;
58071;SDS011;60383;46.626;18.866;2023-04-06T01:11:40;10.13;;;6.95;;
58071;SDS011;60383;46.626;18.866;2023-04-06T01:14:05;8.50;;;6.35;;
58071;SDS011;60383;46.626;18.866;2023-04-06T01:16:31;8.50;;;6.70;;
58071;SDS011;60383;46.626;18.866;2023-04-06T01:18:57;9.75;;;6.60;;
58071;SDS011;60383;46.626;18.866;2023-04-06T01:21:23;10.57;;;7.20;;
58071;SDS011;60383;46.626;18.866;2023-04-06T01:23:48;10.98;;;7.30;;
58071;SDS011;60383;46.626;18.866;2023-04-06T01:26:14;9.73;;;7.20;;
58071;SDS011;60383;46.626;18.866;2023-04-06T01:28:39;10.52;;;7.20;;
58071;SDS011;60383;46.626;18.866;2023-04-06T01:31:07;13.90;;;7.50;;
58071;SDS011;60383;46.626;18.866;2023-04-06T01:33:34;10.55;;;7.25;;
58071;SDS011;60383;46.626;18.866;2023-04-06T01:36:00;11.23;;;7.72;;
58071;SDS011;60383;46.626;18.866;2023-04-06T01:38:26;10.52;;;7.20;;
58071;SDS011;60383;46.626;18.866;2023-04-06T01:40:51;9.80;;;7.32;;
58071;SDS011;60383;46.626;18.866;2023-04-06T01:43:17;11.07;;;7.07;;
58071;SDS011;60383;46.626;18.866;2023-04-06T01:45:43;11.60;;;7.57;;
58071;SDS011;60383;46.626;18.866;2023-04-06T01:48:08;10.77;;;7.28;;
58071;SDS011;60383;46.626;18.866;2023-04-06T01:50:34;10.55;;;7.35;;
58071;SDS011;60383;46.626;18.866;2023-04-06T01:53:00;11.50;;;8.00;;
58071;SDS011;60383;46.626;18.866;2023-04-06T01:55:25;13.68;;;8.20;;
58071;SDS011;60383;46.626;18.866;2023-04-06T01:57:51;15.25;;;8.52;;
58071;SDS011;60383;46.626;18.866;2023-04-06T02:00:16;16.63;;;9.57;;
58071;SDS011;60383;46.626;18.866;2023-04-06T02:02:42;15.23;;;8.55;;
58071;SDS011;60383;46.626;18.866;2023-04-06T02:05:08;13.10;;;8.57;;
58071;SDS011;60383;46.626;18.866;2023-04-06T02:07:33;14.00;;;8.10;;
58071;SDS011;60383;46.626;18.866;2023-04-06T02:09:59;12.10;;;8.15;;
58071;SDS011;60383;46.626;18.866;2023-04-06T02:12:24;12.85;;;7.93;;
58071;SDS011;60383;46.626;18.866;2023-04-06T02:14:50;12.88;;;7.95;;
58071;SDS011;60383;46.626;18.866;2023-04-06T02:17:16;13.70;;;8.13;;
58071;SDS011;60383;46.626;18.866;2023-04-06T02:19:41;13.77;;;9.35;;
58071;SDS011;60383;46.626;18.866;2023-04-06T02:22:07;17.67;;;11.18;;
58071;SDS011;60383;46.626;18.866;2023-04-06T02:24:32;21.90;;;12.68;;
58071;SDS011;60383;46.626;18.866;2023-04-06T02:26:58;24.90;;;13.43;;
58071;SDS011;60383;46.626;18.866;2023-04-06T02:29:23;21.83;;;12.52;;
58071;SDS011;60383;46.626;18.866;2023-04-06T02:31:49;20.20;;;11.73;;
58071;SDS011;60383;46.626;18.866;2023-04-06T02:34:15;18.90;;;10.45;;
58071;SDS011;60383;46.626;18.866;2023-04-06T02:36:43;11.15;;;7.78;;
58071;SDS011;60383;46.626;18.866;2023-04-06T02:39:09;13.65;;;8.48;;
58071;SDS011;60383;46.626;18.866;2023-04-06T02:41:35;10.68;;;7.57;;
58071;SDS011;60383;46.626;18.866;2023-04-06T02:44:00;11.32;;;7.70;;
58071;SDS011;60383;46.626;18.866;2023-04-06T02:46:26;12.07;;;8.05;;
58071;SDS011;60383;46.626;18.866;2023-04-06T02:48:51;11.75;;;7.55;;
58071;SDS011;60383;46.626;18.866;2023-04-06T02:51:17;12.88;;;8.18;;
58071;SDS011;60383;46.626;18.866;2023-04-06T02:53:42;11.68;;;8.00;;
58071;SDS011;60383;46.626;18.866;2023-04-06T02:56:08;15.23;;;7.97;;
58071;SDS011;60383;46.626;18.866;2023-04-06T02:58:33;11.43;;;7.80;;
58071;SDS011;60383;46.626;18.866;2023-04-06T03:00:59;12.75;;;7.85;;
58071;SDS011;60383;46.626;18.866;2023-04-06T03:03:24;13.63;;;9.15;;
58071;SDS011;60383;46.626;18.866;2023-04-06T03:05:50;11.95;;;8.18;;
58071;SDS011;60383;46.626;18.866;2023-04-06T03:08:15;11.75;;;7.88;;
58071;SDS011;60383;46.626;18.866;2023-04-06T03:10:41;11.80;;;8.13;;
58071;SDS011;60383;46.626;18.866;2023-04-06T03:13:06;11.30;;;7.63;;
58071;SDS011;60383;46.626;18.866;2023-04-06T03:15:32;12.10;;;7.88;;
58071;SDS011;60383;46.626;18.866;2023-04-06T03:17:57;11.90;;;8.45;;
58071;SDS011;60383;46.626;18.866;2023-04-06T03:20:23;12.75;;;8.18;;
58071;SDS011;60383;46.626;18.866;2023-04-06T03:22:48;14.70;;;8.40;;
58071;SDS011;60383;46.626;18.866;2023-04-06T03:25:14;9.95;;;7.57;;
58071;SDS011;60383;46.626;18.866;2023-04-06T03:27:39;12.50;;;7.93;;
58071;SDS011;60383;46.626;18.866;2023-04-06T03:30:05;8.82;;;6.85;;
58071;SDS011;60383;46.626;18.866;2023-04-06T03:32:31;14.13;;;7.85;;
58071;SDS011;60383;46.626;18.866;2023-04-06T03:34:56;14.40;;;7.32;;
58071;SDS011;60383;46.626;18.866;2023-04-06T03:37:22;12.00;;;7.80;;
58071;SDS011;60383;46.626;18.866;2023-04-06T03:39:48;12.35;;;8.13;;
58071;SDS011;60383;46.626;18.866;2023-04-06T03:42:13;11.93;;;7.63;;
58071;SDS011;60383;46.626;18.866;2023-04-06T03:44:38;11.25;;;7.40;;
58071;SDS011;60383;46.626;18.866;2023-04-06T03:47:04;11.93;;;7.70;;
58071;SDS011;60383;46.626;18.866;2023-04-06T03:49:29;13.20;;;8.15;;
58071;SDS011;60383;46.626;18.866;2023-04-06T03:51:56;12.15;;;8.00;;
58071;SDS011;60383;46.626;18.866;2023-04-06T03:54:21;12.18;;;7.93;;
58071;SDS011;60383;46.626;18.866;2023-04-06T03:56:47;11.40;;;7.28;;
58071;SDS011;60383;46.626;18.866;2023-04-06T03:59:12;14.55;;;7.47;;
58071;SDS011;60383;46.626;18.866;2023-04-06T04:01:38;11.35;;;7.63;;
58071;SDS011;60383;46.626;18.866;2023-04-06T04:04:04;11.15;;;8.50;;
58071;SDS011;60383;46.626;18.866;2023-04-06T04:06:30;11.63;;;7.45;;
58071;SDS011;60383;46.626;18.866;2023-04-06T04:08:55;14.18;;;7.88;;
58071;SDS011;60383;46.626;18.866;2023-04-06T04:11:21;11.73;;;8.00;;
58071;SDS011;60383;46.626;18.866;2023-04-06T04:13:46;12.85;;;8.02;;
58071;SDS011;60383;46.626;18.866;2023-04-06T04:16:12;14.18;;;8.82;;
58071;SDS011;60383;46.626;18.866;2023-04-06T04:18:37;11.07;;;8.13;;
58071;SDS011;60383;46.626;18.866;2023-04-06T04:21:03;12.30;;;7.40;;
58071;SDS011;60383;46.626;18.866;2023-04-06T04:23:28;10.80;;;7.80;;
58071;SDS011;60383;46.626;18.866;2023-04-06T04:25:54;13.57;;;8.13;;
58071;SDS011;60383;46.626;18.866;2023-04-06T04:28:19;12.68;;;7.65;;
58071;SDS011;60383;46.626;18.866;2023-04-06T04:30:45;11.70;;;7.93;;
58071;SDS011;60383;46.626;18.866;2023-04-06T04:33:11;9.40;;;7.25;;
58071;SDS011;60383;46.626;18.866;2023-04-06T04:35:37;13.30;;;7.47;;
58071;SDS011;60383;46.626;18.866;2023-04-06T04:38:02;10.48;;;7.30;;
58071;SDS011;60383;46.626;18.866;2023-04-06T04:40:27;11.35;;;7.88;;
58071;SDS011;60383;46.626;18.866;2023-04-06T04:42:53;10.23;;;7.38;;
58071;SDS011;60383;46.626;18.866;2023-04-06T04:45:18;14.50;;;7.88;;
58071;SDS011;60383;46.626;18.866;2023-04-06T04:47:44;11.18;;;8.23;;
58071;SDS011;60383;46.626;18.866;2023-04-06T04:50:09;12.95;;;8.52;;
58071;SDS011;60383;46.626;18.866;2023-04-06T04:52:35;13.70;;;9.70;;
58071;SDS011;60383;46.626;18.866;2023-04-06T04:55:02;16.15;;;11.52;;
58071;SDS011;60383;46.626;18.866;2023-04-06T04:57:27;13.80;;;11.35;;
58071;SDS011;60383;46.626;18.866;2023-04-06T04:59:53;17.65;;;11.55;;
58071;SDS011;60383;46.626;18.866;2023-04-06T05:02:18;21.17;;;11.88;;
58071;SDS011;60383;46.626;18.866;2023-04-06T05:04:44;17.90;;;11.93;;
58071;SDS011;60383;46.626;18.866;2023-04-06T05:07:10;17.27;;;11.93;;
58071;SDS011;60383;46.626;18.866;2023-04-06T05:09:35;19.85;;;12.90;;
58071;SDS011;60383;46.626;18.866;2023-04-06T05:12:01;21.73;;;13.68;;
58071;SDS011;60383;46.626;18.866;2023-04-06T05:14:27;20.13;;;13.23;;
58071;SDS011;60383;46.626;18.866;2023-04-06T05:16:53;21.73;;;12.70;;
58071;SDS011;60383;46.626;18.866;2023-04-06T05:19:19;19.83;;;12.88;;
58071;SDS011;60383;46.626;18.866;2023-04-06T05:21:44;18.60;;;12.00;;
58071;SDS011;60383;46.626;18.866;2023-04-06T05:24:10;18.90;;;13.77;;
58071;SDS011;60383;46.626;18.866;2023-04-06T05:26:35;25.55;;;15.48;;
58071;SDS011;60383;46.626;18.866;2023-04-06T05:29:01;26.95;;;16.40;;
58071;SDS011;60383;46.626;18.866;2023-04-06T05:31:27;22.88;;;15.10;;
58071;SDS011;60383;46.626;18.866;2023-04-06T05:33:52;24.48;;;15.40;;
58071;SDS011;60383;46.626;18.866;2023-04-06T05:36:18;23.50;;;15.13;;
58071;SDS011;60383;46.626;18.866;2023-04-06T05:38:43;23.58;;;15.55;;
58071;SDS011;60383;46.626;18.866;2023-04-06T05:41:09;20.90;;;14.75;;
58071;SDS011;60383;46.626;18.866;2023-04-06T05:43:35;22.65;;;15.35;;
58071;SDS011;60383;46.626;18.866;2023-04-06T05:46:01;25.80;;;14.95;;
58071;SDS011;60383;46.626;18.866;2023-04-06T05:48:27;23.70;;;14.90;;
58071;SDS011;60383;46.626;18.866;2023-04-06T05:50:52;19.40;;;13.02;;
58071;SDS011;60383;46.626;18.866;2023-04-06T05:53:18;21.52;;;13.70;;
58071;SDS011;60383;46.626;18.866;2023-04-06T05:55:45;19.95;;;13.40;;
58071;SDS011;60383;46.626;18.866;2023-04-06T05:58:11;20.77;;;13.25;;
58071;SDS011;60383;46.626;18.866;2023-04-06T06:00:37;19.33;;;12.88;;
58071;SDS011;60383;46.626;18.866;2023-04-06T06:03:02;16.80;;;12.60;;
58071;SDS011;60383;46.626;18.866;2023-04-06T06:05:33;18.23;;;11.70;;
58071;SDS011;60383;46.626;18.866;2023-04-06T06:07:59;17.17;;;12.43;;
58071;SDS011;60383;46.626;18.866;2023-04-06T06:10:27;17.40;;;12.13;;
58071;SDS011;60383;46.626;18.866;2023-04-06T06:12:52;18.77;;;11.75;;
58071;SDS011;60383;46.626;18.866;2023-04-06T06:15:18;17.17;;;11.88;;
58071;SDS011;60383;46.626;18.866;2023-04-06T06:17:43;20.15;;;13.40;;
58071;SDS011;60383;46.626;18.866;2023-04-06T06:20:09;18.27;;;12.27;;
58071;SDS011;60383;46.626;18.866;2023-04-06T06:22:35;15.88;;;11.35;;
58071;SDS011;60383;46.626;18.866;2023-04-06T06:25:00;15.80;;;10.73;;
58071;SDS011;60383;46.626;18.866;2023-04-06T06:27:26;16.58;;;10.32;;
58071;SDS011;60383;46.626;18.866;2023-04-06T06:29:51;14.70;;;9.90;;
58071;SDS011;60383;46.626;18.866;2023-04-06T06:32:17;13.32;;;8.85;;
58071;SDS011;60383;46.626;18.866;2023-04-06T06:34:43;13.68;;;8.85;;
58071;SDS011;60383;46.626;18.866;2023-04-06T06:37:08;11.85;;;8.98;;
58071;SDS011;60383;46.626;18.866;2023-04-06T06:39:34;13.07;;;8.98;;
58071;SDS011;60383;46.626;18.866;2023-04-06T06:41:59;12.90;;;8.60;;
58071;SDS011;60383;46.626;18.866;2023-04-06T06:44:26;9.65;;;8.02;;
58071;SDS011;60383;46.626;18.866;2023-04-06T06:46:52;10.85;;;7.72;;
58071;SDS011;60383;46.626;18.866;2023-04-06T06:49:17;13.00;;;8.57;;
58071;SDS011;60383;46.626;18.866;2023-04-06T06:51:43;13.07;;;8.93;;
58071;SDS011;60383;46.626;18.866;2023-04-06T06:54:09;13.27;;;7.78;;
58071;SDS011;60383;46.626;18.866;2023-04-06T06:56:34;10.95;;;7.93;;
58071;SDS011;60383;46.626;18.866;2023-04-06T06:59:02;13.55;;;9.00;;
58071;SDS011;60383;46.626;18.866;2023-04-06T07:01:30;13.48;;;8.75;;
58071;SDS011;60383;46.626;18.866;2023-04-06T07:03:57;13.35;;;9.82;;
58071;SDS011;60383;46.626;18.866;2023-04-06T07:06:23;12.43;;;9.05;;
58071;SDS011;60383;46.626;18.866;2023-04-06T07:08:48;14.02;;;8.57;;
58071;SDS011;60383;46.626;18.866;2023-04-06T07:11:14;13.32;;;8.35;;
58071;SDS011;60383;46.626;18.866;2023-04-06T07:13:39;12.80;;;9.35;;
58071;SDS011;60383;46.626;18.866;2023-04-06T07:16:05;12.85;;;9.10;;
58071;SDS011;60383;46.626;18.866;2023-04-06T07:18:30;10.88;;;8.10;;
58071;SDS011;60383;46.626;18.866;2023-04-06T07:20:56;11.18;;;8.88;;
58071;SDS011;60383;46.626;18.866;2023-04-06T07:23:21;11.45;;;8.32;;
58071;SDS011;60383;46.626;18.866;2023-04-06T07:25:47;12.25;;;8.15;;
58071;SDS011;60383;46.626;18.866;2023-04-06T07:28:12;12.82;;;7.93;;
58071;SDS011;60383;46.626;18.866;2023-04-06T07:30:38;11.70;;;7.75;;
58071;SDS011;60383;46.626;18.866;2023-04-06T07:33:03;10.23;;;7.30;;
58071;SDS011;60383;46.626;18.866;2023-04-06T07:35:30;10.55;;;7.07;;
58071;SDS011;60383;46.626;18.866;2023-04-06T07:37:56;9.73;;;6.60;;
58071;SDS011;60383;46.626;18.866;2023-04-06T07:40:22;9.35;;;6.63;;
58071;SDS011;60383;46.626;18.866;2023-04-06T07:42:47;10.77;;;6.72;;
58071;SDS011;60383;46.626;18.866;2023-04-06T07:45:13;8.20;;;6.20;;
58071;SDS011;60383;46.626;18.866;2023-04-06T07:47:40;11.45;;;7.85;;
58071;SDS011;60383;46.626;18.866;2023-04-06T07:50:06;8.98;;;6.40;;
58071;SDS011;60383;46.626;18.866;2023-04-06T07:52:32;9.95;;;6.60;;
58071;SDS011;60383;46.626;18.866;2023-04-06T07:54:58;9.82;;;6.32;;
58071;SDS011;60383;46.626;18.866;2023-04-06T07:57:24;10.60;;;6.93;;
58071;SDS011;60383;46.626;18.866;2023-04-06T07:59:50;9.40;;;6.30;;
58071;SDS011;60383;46.626;18.866;2023-04-06T08:02:15;9.95;;;7.20;;
58071;SDS011;60383;46.626;18.866;2023-04-06T08:04:41;9.85;;;6.80;;
58071;SDS011;60383;46.626;18.866;2023-04-06T08:07:06;11.25;;;7.50;;
58071;SDS011;60383;46.626;18.866;2023-04-06T08:09:31;11.88;;;6.88;;
58071;SDS011;60383;46.626;18.866;2023-04-06T08:11:57;12.70;;;7.40;;
58071;SDS011;60383;46.626;18.866;2023-04-06T08:14:23;10.45;;;6.97;;
58071;SDS011;60383;46.626;18.866;2023-04-06T08:16:49;10.20;;;7.30;;
58071;SDS011;60383;46.626;18.866;2023-04-06T08:19:14;10.02;;;7.85;;
58071;SDS011;60383;46.626;18.866;2023-04-06T08:21:42;12.23;;;7.95;;
58071;SDS011;60383;46.626;18.866;2023-04-06T08:24:08;14.20;;;9.00;;
58071;SDS011;60383;46.626;18.866;2023-04-06T08:26:33;12.48;;;7.97;;
58071;SDS011;60383;46.626;18.866;2023-04-06T08:28:59;12.40;;;7.72;;
58071;SDS011;60383;46.626;18.866;2023-04-06T08:31:25;10.77;;;7.47;;
58071;SDS011;60383;46.626;18.866;2023-04-06T08:33:51;10.30;;;7.30;;
58071;SDS011;60383;46.626;18.866;2023-04-06T08:36:17;10.63;;;8.15;;
58071;SDS011;60383;46.626;18.866;2023-04-06T08:38:47;11.40;;;7.22;;
58071;SDS011;60383;46.626;18.866;2023-04-06T08:41:14;10.07;;;8.27;;
58071;SDS011;60383;46.626;18.866;2023-04-06T08:43:57;12.80;;;7.53;;
58071;SDS011;60383;46.626;18.866;2023-04-06T08:46:24;9.48;;;6.97;;
58071;SDS011;60383;46.626;18.866;2023-04-06T08:48:54;10.97;;;7.90;;
58071;SDS011;60383;46.626;18.866;2023-04-06T08:51:21;11.80;;;7.53;;
58071;SDS011;60383;46.626;18.866;2023-04-06T08:56:24;13.40;;;7.93;;
58071;SDS011;60383;46.626;18.866;2023-04-06T08:58:51;10.98;;;7.63;;
58071;SDS011;60383;46.626;18.866;2023-04-06T09:01:21;9.18;;;6.15;;
58071;SDS011;60383;46.626;18.866;2023-04-06T09:03:50;10.68;;;8.32;;
58071;SDS011;60383;46.626;18.866;2023-04-06T09:06:20;11.13;;;7.97;;
58071;SDS011;60383;46.626;18.866;2023-04-06T09:08:46;13.13;;;8.50;;
58071;SDS011;60383;46.626;18.866;2023-04-06T09:11:11;12.93;;;8.38;;
58071;SDS011;60383;46.626;18.866;2023-04-06T09:14:12;10.70;;;8.15;;
58071;SDS011;60383;46.626;18.866;2023-04-06T09:16:38;11.43;;;8.57;;
58071;SDS011;60383;46.626;18.866;2023-04-06T09:19:08;12.48;;;8.40;;
58071;SDS011;60383;46.626;18.866;2023-04-06T09:21:34;13.40;;;8.23;;
58071;SDS011;60383;46.626;18.866;2023-04-06T09:24:01;12.55;;;8.48;;
58071;SDS011;60383;46.626;18.866;2023-04-06T09:26:28;12.75;;;8.60;;
58071;SDS011;60383;46.626;18.866;2023-04-06T09:28:55;9.98;;;6.85;;
58071;SDS011;60383;46.626;18.866;2023-04-06T09:31:26;10.25;;;6.13;;
58071;SDS011;60383;46.626;18.866;2023-04-06T09:36:19;10.30;;;7.00;;
58071;SDS011;60383;46.626;18.866;2023-04-06T09:38:52;9.63;;;7.03;;
58071;SDS011;60383;46.626;18.866;2023-04-06T09:41:31;10.70;;;8.00;;
58071;SDS011;60383;46.626;18.866;2023-04-06T09:44:04;9.55;;;8.50;;
58071;SDS011;60383;46.626;18.866;2023-04-06T09:46:32;10.57;;;7.82;;
58071;SDS011;60383;46.626;18.866;2023-04-06T09:49:01;12.68;;;8.02;;
58071;SDS011;60383;46.626;18.866;2023-04-06T09:51:30;15.55;;;9.30;;
58071;SDS011;60383;46.626;18.866;2023-04-06T09:53:57;10.90;;;7.88;;
58071;SDS011;60383;46.626;18.866;2023-04-06T09:56:30;11.35;;;8.73;;
58071;SDS011;60383;46.626;18.866;2023-04-06T10:01:33;11.25;;;9.07;;
58071;SDS011;60383;46.626;18.866;2023-04-06T10:04:49;11.77;;;8.30;;
58071;SDS011;60383;46.626;18.866;2023-04-06T10:06:56;12.57;;;8.75;;
58071;SDS011;60383;46.626;18.866;2023-04-06T10:09:24;13.50;;;8.65;;
58071;SDS011;60383;46.626;18.866;2023-04-06T10:11:53;14.82;;;7.07;;
58071;SDS011;60383;46.626;18.866;2023-04-06T10:14:19;13.30;;;8.85;;
58071;SDS011;60383;46.626;18.866;2023-04-06T10:16:45;12.68;;;8.88;;
58071;SDS011;60383;46.626;18.866;2023-04-06T10:19:20;11.50;;;8.80;;
58071;SDS011;60383;46.626;18.866;2023-04-06T10:21:52;11.68;;;8.35;;
58071;SDS011;60383;46.626;18.866;2023-04-06T10:24:20;10.43;;;7.53;;
58071;SDS011;60383;46.626;18.866;2023-04-06T10:26:58;10.18;;;7.55;;
58071;SDS011;60383;46.626;18.866;2023-04-06T10:29:26;11.57;;;8.50;;
58071;SDS011;60383;46.626;18.866;2023-04-06T10:31:52;11.52;;;7.63;;
58071;SDS011;60383;46.626;18.866;2023-04-06T10:34:17;16.77;;;8.95;;
58071;SDS011;60383;46.626;18.866;2023-04-06T10:36:43;11.93;;;8.45;;
58071;SDS011;60383;46.626;18.866;2023-04-06T10:39:08;10.25;;;7.35;;
58071;SDS011;60383;46.626;18.866;2023-04-06T10:41:43;10.55;;;7.82;;
58071;SDS011;60383;46.626;18.866;2023-04-06T10:44:21;11.63;;;7.57;;
58071;SDS011;60383;46.626;18.866;2023-04-06T10:46:53;9.07;;;6.20;;
58071;SDS011;60383;46.626;18.866;2023-04-06T10:49:20;9.90;;;7.85;;
58071;SDS011;60383;46.626;18.866;2023-04-06T10:51:50;8.57;;;7.03;;
58071;SDS011;60383;46.626;18.866;2023-04-06T10:54:17;10.88;;;6.93;;
58071;SDS011;60383;46.626;18.866;2023-04-06T10:56:43;10.20;;;6.90;;
58071;SDS011;60383;46.626;18.866;2023-04-06T10:59:09;10.48;;;7.00;;
58071;SDS011;60383;46.626;18.866;2023-04-06T11:01:34;10.07;;;6.60;;
58071;SDS011;60383;46.626;18.866;2023-04-06T11:04:00;14.57;;;7.95;;
58071;SDS011;60383;46.626;18.866;2023-04-06T11:06:29;12.40;;;8.80;;
58071;SDS011;60383;46.626;18.866;2023-04-06T11:08:58;14.60;;;7.60;;
58071;SDS011;60383;46.626;18.866;2023-04-06T11:11:25;13.63;;;8.75;;
58071;SDS011;60383;46.626;18.866;2023-04-06T11:13:52;11.05;;;8.00;;
58071;SDS011;60383;46.626;18.866;2023-04-06T11:24:05;11.68;;;8.77;;
58071;SDS011;60383;46.626;18.866;2023-04-06T11:26:42;12.23;;;9.15;;
58071;SDS011;60383;46.626;18.866;2023-04-06T11:29:17;12.23;;;8.88;;
58071;SDS011;60383;46.626;18.866;2023-04-06T11:31:47;13.40;;;8.65;;
58071;SDS011;60383;46.626;18.866;2023-04-06T11:34:17;10.98;;;7.90;;
58071;SDS011;60383;46.626;18.866;2023-04-06T11:36:44;11.80;;;8.30;;
58071;SDS011;60383;46.626;18.866;2023-04-06T11:39:12;13.18;;;9.25;;
58071;SDS011;60383;46.626;18.866;2023-04-06T11:41:38;13.35;;;8.38;;
58071;SDS011;60383;46.626;18.866;2023-04-06T11:44:05;13.85;;;9.65;;
58071;SDS011;60383;46.626;18.866;2023-04-06T11:46:30;13.30;;;8.40;;
58071;SDS011;60383;46.626;18.866;2023-04-06T11:49:00;13.10;;;9.25;;
58071;SDS011;60383;46.626;18.866;2023-04-06T11:51:27;10.13;;;8.10;;
58071;SDS011;60383;46.626;18.866;2023-04-06T11:53:53;12.50;;;8.02;;
58071;SDS011;60383;46.626;18.866;2023-04-06T11:56:23;15.57;;;9.35;;
58071;SDS011;60383;46.626;18.866;2023-04-06T11:58:56;11.77;;;8.18;;
58071;SDS011;60383;46.626;18.866;2023-04-06T12:01:24;12.75;;;8.15;;
58071;SDS011;60383;46.626;18.866;2023-04-06T12:03:50;12.70;;;8.20;;
58071;SDS011;60383;46.626;18.866;2023-04-06T12:06:16;13.85;;;8.75;;
58071;SDS011;60383;46.626;18.866;2023-04-06T12:08:42;15.70;;;9.02;;
58071;SDS011;60383;46.626;18.866;2023-04-06T12:11:08;16.02;;;9.07;;
58071;SDS011;60383;46.626;18.866;2023-04-06T12:13:33;14.45;;;9.40;;
58071;SDS011;60383;46.626;18.866;2023-04-06T12:15:59;17.55;;;8.85;;
58071;SDS011;60383;46.626;18.866;2023-04-06T12:18:24;12.52;;;8.35;;
58071;SDS011;60383;46.626;18.866;2023-04-06T12:20:50;14.23;;;7.55;;
58071;SDS011;60383;46.626;18.866;2023-04-06T12:23:17;15.43;;;8.52;;
58071;SDS011;60383;46.626;18.866;2023-04-06T12:25:43;14.43;;;8.90;;
58071;SDS011;60383;46.626;18.866;2023-04-06T12:28:09;11.80;;;7.97;;
58071;SDS011;60383;46.626;18.866;2023-04-06T12:30:35;12.13;;;7.93;;
58071;SDS011;60383;46.626;18.866;2023-04-06T12:33:00;12.30;;;7.70;;
58071;SDS011;60383;46.626;18.866;2023-04-06T12:35:26;13.10;;;8.00;;
58071;SDS011;60383;46.626;18.866;2023-04-06T12:37:52;18.02;;;8.00;;
58071;SDS011;60383;46.626;18.866;2023-04-06T12:40:17;11.90;;;8.77;;
58071;SDS011;60383;46.626;18.866;2023-04-06T12:42:43;15.93;;;9.00;;
58071;SDS011;60383;46.626;18.866;2023-04-06T12:45:10;13.10;;;8.90;;
58071;SDS011;60383;46.626;18.866;2023-04-06T12:47:36;14.25;;;8.95;;
58071;SDS011;60383;46.626;18.866;2023-04-06T12:50:03;12.48;;;8.88;;
58071;SDS011;60383;46.626;18.866;2023-04-06T12:52:31;12.52;;;7.40;;
58071;SDS011;60383;46.626;18.866;2023-04-06T12:54:57;12.98;;;7.90;;
58071;SDS011;60383;46.626;18.866;2023-04-06T12:57:25;12.13;;;7.70;;
58071;SDS011;60383;46.626;18.866;2023-04-06T12:59:51;19.38;;;9.40;;
58071;SDS011;60383;46.626;18.866;2023-04-06T13:02:18;13.77;;;8.35;;
58071;SDS011;60383;46.626;18.866;2023-04-06T13:04:45;19.00;;;8.35;;
58071;SDS011;60383;46.626;18.866;2023-04-06T13:07:11;13.93;;;8.38;;
58071;SDS011;60383;46.626;18.866;2023-04-06T13:09:36;11.68;;;8.27;;
58071;SDS011;60383;46.626;18.866;2023-04-06T13:12:02;11.88;;;9.05;;
58071;SDS011;60383;46.626;18.866;2023-04-06T13:14:28;12.57;;;9.20;;
58071;SDS011;60383;46.626;18.866;2023-04-06T13:16:53;12.27;;;8.88;;
58071;SDS011;60383;46.626;18.866;2023-04-06T13:19:19;14.45;;;8.50;;
58071;SDS011;60383;46.626;18.866;2023-04-06T13:21:45;12.45;;;8.23;;
58071;SDS011;60383;46.626;18.866;2023-04-06T13:24:10;11.65;;;8.77;;
58071;SDS011;60383;46.626;18.866;2023-04-06T13:26:36;15.27;;;8.60;;
58071;SDS011;60383;46.626;18.866;2023-04-06T13:29:01;10.35;;;7.75;;
58071;SDS011;60383;46.626;18.866;2023-04-06T13:31:27;13.13;;;9.10;;
58071;SDS011;60383;46.626;18.866;2023-04-06T13:33:53;12.05;;;8.50;;
58071;SDS011;60383;46.626;18.866;2023-04-06T13:36:19;16.55;;;8.75;;
58071;SDS011;60383;46.626;18.866;2023-04-06T13:38:44;15.30;;;8.68;;
58071;SDS011;60383;46.626;18.866;2023-04-06T13:41:16;11.07;;;8.23;;
58071;SDS011;60383;46.626;18.866;2023-04-06T13:43:43;14.77;;;7.72;;
58071;SDS011;60383;46.626;18.866;2023-04-06T13:46:08;13.18;;;8.70;;
58071;SDS011;60383;46.626;18.866;2023-04-06T13:48:34;12.77;;;9.20;;
58071;SDS011;60383;46.626;18.866;2023-04-06T13:51:07;15.40;;;9.80;;
58071;SDS011;60383;46.626;18.866;2023-04-06T13:53:36;12.88;;;10.15;;
58071;SDS011;60383;46.626;18.866;2023-04-06T13:56:02;14.50;;;9.38;;
58071;SDS011;60383;46.626;18.866;2023-04-06T13:58:28;14.73;;;9.98;;
58071;SDS011;60383;46.626;18.866;2023-04-06T14:00:53;16.20;;;9.45;;
58071;SDS011;60383;46.626;18.866;2023-04-06T14:03:20;15.25;;;10.15;;
58071;SDS011;60383;46.626;18.866;2023-04-06T14:05:46;14.10;;;10.13;;
58071;SDS011;60383;46.626;18.866;2023-04-06T14:08:11;14.02;;;9.70;;
58071;SDS011;60383;46.626;18.866;2023-04-06T14:10:38;13.98;;;9.82;;
58071;SDS011;60383;46.626;18.866;2023-04-06T14:13:05;18.75;;;11.02;;
58071;SDS011;60383;46.626;18.866;2023-04-06T14:15:30;15.85;;;10.13;;
58071;SDS011;60383;46.626;18.866;2023-04-06T14:17:56;16.73;;;10.13;;
58071;SDS011;60383;46.626;18.866;2023-04-06T14:20:21;14.55;;;10.05;;
58071;SDS011;60383;46.626;18.866;2023-04-06T14:22:47;17.13;;;11.18;;
58071;SDS011;60383;46.626;18.866;2023-04-06T14:25:14;18.05;;;10.50;;
58071;SDS011;60383;46.626;18.866;2023-04-06T14:27:41;14.18;;;10.35;;
58071;SDS011;60383;46.626;18.866;2023-04-06T14:30:07;14.52;;;10.52;;
58071;SDS011;60383;46.626;18.866;2023-04-06T14:32:33;14.98;;;10.73;;
58071;SDS011;60383;46.626;18.866;2023-04-06T14:35:00;15.95;;;10.48;;